createdAt,value
2023-03-29T00:00:35.192Z,-1.69
2023-03-29T00:01:36.494Z,-1.62
2023-03-29T00:02:35.237Z,-1.59
2023-03-29T00:03:35.273Z,-1.59
2023-03-29T00:04:35.249Z,-1.56
2023-03-29T00:05:35.216Z,-1.58
2023-03-29T00:06:35.190Z,-1.61
2023-03-29T00:07:35.152Z,-1.62
2023-03-29T00:08:35.173Z,-1.58
2023-03-29T00:09:35.120Z,-1.51
2023-03-29T00:10:35.103Z,-1.48
2023-03-29T00:11:35.090Z,-1.47
2023-03-29T00:12:35.129Z,-1.44
2023-03-29T00:13:35.089Z,-1.46
2023-03-29T00:14:35.051Z,-1.44
2023-03-29T00:15:35.052Z,-1.38
2023-03-29T00:16:35.074Z,-1.27
2023-03-29T00:17:35.087Z,-1.20
2023-03-29T00:18:35.004Z,-1.17
2023-03-29T00:19:35.016Z,-1.19
2023-03-29T00:20:34.994Z,-1.17
2023-03-29T00:21:34.984Z,-1.19
2023-03-29T00:22:34.994Z,-1.23
2023-03-29T00:23:34.969Z,-1.27
2023-03-29T00:24:34.948Z,-1.29
2023-03-29T00:25:34.939Z,-1.33
2023-03-29T00:26:34.918Z,-1.38
2023-03-29T00:27:34.968Z,-1.41
2023-03-29T00:28:34.890Z,-1.46
2023-03-29T00:29:34.898Z,-1.53
2023-03-29T00:30:34.876Z,-1.58
2023-03-29T00:31:34.933Z,-1.61
2023-03-29T00:32:34.932Z,-1.62
2023-03-29T00:33:34.837Z,-1.62
2023-03-29T00:34:34.825Z,-1.62
2023-03-29T00:35:34.870Z,-1.71
2023-03-29T00:36:34.811Z,-1.72
2023-03-29T00:37:34.843Z,-1.79
2023-03-29T00:38:34.780Z,-1.82
2023-03-29T00:39:34.782Z,-1.84
2023-03-29T00:40:34.768Z,-1.86
2023-03-29T00:41:34.781Z,-1.86
2023-03-29T00:42:34.774Z,-1.86
2023-03-29T00:43:34.742Z,-1.89
2023-03-29T00:44:34.726Z,-1.90
2023-03-29T00:45:34.711Z,-1.97
2023-03-29T00:46:34.736Z,-2.01
2023-03-29T00:47:34.788Z,-2.04
2023-03-29T00:48:34.682Z,-2.02
2023-03-29T00:49:34.678Z,-2.04
2023-03-29T00:50:34.650Z,-2.04
2023-03-29T00:51:34.647Z,-2.00
2023-03-29T00:52:34.672Z,-2.01
2023-03-29T00:53:34.645Z,-2.02
2023-03-29T00:54:34.601Z,-2.01
2023-03-29T00:55:34.597Z,-2.01
2023-03-29T00:56:34.711Z,-2.02
2023-03-29T00:57:34.610Z,-2.02
2023-03-29T00:58:34.562Z,-2.00
2023-03-29T00:59:34.559Z,-1.98
2023-03-29T01:00:34.541Z,-1.98
2023-03-29T01:01:34.553Z,-1.94
2023-03-29T01:02:34.837Z,-1.90
2023-03-29T01:03:34.586Z,-1.89
2023-03-29T01:04:34.501Z,-1.92
2023-03-29T01:05:34.500Z,-1.95
2023-03-29T01:06:34.544Z,-1.97
2023-03-29T01:07:34.508Z,-1.97
2023-03-29T01:08:34.476Z,-1.94
2023-03-29T01:09:34.462Z,-1.94
2023-03-29T01:10:34.424Z,-1.94
2023-03-29T01:11:34.419Z,-1.98
2023-03-29T01:12:34.445Z,-1.98
2023-03-29T01:13:34.402Z,-1.97
2023-03-29T01:14:34.397Z,-1.95
2023-03-29T01:15:34.379Z,-1.97
2023-03-29T01:16:34.439Z,-1.97
2023-03-29T01:17:34.435Z,-2.00
2023-03-29T01:18:34.338Z,-2.04
2023-03-29T01:19:34.339Z,-2.05
2023-03-29T01:20:34.338Z,-2.10
2023-03-29T01:21:34.313Z,-2.12
2023-03-29T01:22:34.365Z,-2.12
2023-03-29T01:23:34.296Z,-2.15
2023-03-29T01:24:34.278Z,-2.12
2023-03-29T01:25:34.305Z,-2.13
2023-03-29T01:26:34.255Z,-2.07
2023-03-29T01:27:34.286Z,-2.07
2023-03-29T01:28:34.230Z,-2.07
2023-03-29T01:29:34.226Z,-2.04
2023-03-29T01:30:34.207Z,-2.01
2023-03-29T01:31:34.225Z,-2.01
2023-03-29T01:32:34.320Z,-2.02
2023-03-29T01:33:34.183Z,-2.01
2023-03-29T01:34:34.160Z,-1.97
2023-03-29T01:35:34.187Z,-1.97
2023-03-29T01:36:34.148Z,-1.98
2023-03-29T01:37:34.210Z,-2.01
2023-03-29T01:38:34.117Z,-1.98
2023-03-29T01:39:34.104Z,-1.98
2023-03-29T01:40:34.099Z,-1.94
2023-03-29T01:41:34.105Z,-1.94
2023-03-29T01:42:34.116Z,-1.87
2023-03-29T01:43:34.086Z,-1.82
2023-03-29T01:44:34.070Z,-1.77
2023-03-29T01:45:34.089Z,-1.76
2023-03-29T01:46:34.180Z,-1.69
2023-03-29T01:47:34.123Z,-1.58
2023-03-29T01:48:34.066Z,-1.41
2023-03-29T01:49:34.033Z,-1.25
2023-03-29T01:50:33.982Z,-1.17
2023-03-29T01:51:33.971Z,-1.15
2023-03-29T01:52:34.087Z,-1.17
2023-03-29T01:53:33.954Z,-1.15
2023-03-29T01:54:33.936Z,-1.08
2023-03-29T01:55:33.941Z,-1.01
2023-03-29T01:56:33.909Z,-0.97
2023-03-29T01:57:33.942Z,-0.99
2023-03-29T01:58:33.954Z,-0.78
2023-03-29T01:59:33.899Z,-0.72
2023-03-29T02:00:33.879Z,-0.70
2023-03-29T02:01:33.898Z,-0.68
2023-03-29T02:02:34.054Z,-0.70
2023-03-29T02:03:33.997Z,-0.74
2023-03-29T02:04:33.828Z,-0.72
2023-03-29T02:05:33.816Z,-0.75
2023-03-29T02:06:33.821Z,-0.72
2023-03-29T02:07:33.822Z,-0.65
2023-03-29T02:08:33.779Z,-0.43
2023-03-29T02:09:33.782Z,-0.31
2023-03-29T02:10:33.765Z,-0.15
2023-03-29T02:11:33.744Z,-0.14
2023-03-29T02:12:33.777Z,-0.08
2023-03-29T02:13:33.717Z,-0.03
2023-03-29T02:14:33.727Z,0.00
2023-03-29T02:15:33.813Z,0.19
2023-03-29T02:16:33.687Z,0.31
2023-03-29T02:17:33.773Z,0.39
2023-03-29T02:18:33.670Z,0.49
2023-03-29T02:19:33.675Z,0.56
2023-03-29T02:20:33.646Z,0.62
2023-03-29T02:21:33.655Z,0.70
2023-03-29T02:22:33.665Z,0.74
2023-03-29T02:23:33.620Z,0.74
2023-03-29T02:24:33.608Z,0.78
2023-03-29T02:25:33.625Z,0.78
2023-03-29T02:26:33.589Z,0.83
2023-03-29T02:27:33.611Z,0.86
2023-03-29T02:28:33.570Z,0.88
2023-03-29T02:29:33.556Z,0.94
2023-03-29T02:30:33.538Z,0.94
2023-03-29T02:31:33.559Z,0.98
2023-03-29T02:32:33.552Z,0.99
2023-03-29T02:33:33.541Z,1.01
2023-03-29T02:34:33.485Z,1.01
2023-03-29T02:35:33.523Z,0.99
2023-03-29T02:36:33.475Z,0.96
2023-03-29T02:37:33.462Z,1.04
2023-03-29T02:38:33.494Z,1.06
2023-03-29T02:39:33.440Z,1.05
2023-03-29T02:40:33.429Z,1.08
2023-03-29T02:41:33.420Z,1.12
2023-03-29T02:42:33.433Z,1.13
2023-03-29T02:43:33.421Z,1.02
2023-03-29T02:44:33.383Z,0.99
2023-03-29T02:45:33.359Z,0.94
2023-03-29T02:46:33.366Z,1.10
2023-03-29T02:47:33.392Z,1.16
2023-03-29T02:48:33.363Z,1.16
2023-03-29T02:49:33.324Z,1.23
2023-03-29T02:50:33.342Z,1.32
2023-03-29T02:51:33.318Z,1.30
2023-03-29T02:52:33.294Z,1.23
2023-03-29T02:53:33.332Z,1.12
2023-03-29T02:54:33.277Z,1.04
2023-03-29T02:55:33.259Z,0.96
2023-03-29T02:56:33.246Z,0.87
2023-03-29T02:57:33.236Z,0.81
2023-03-29T02:58:33.262Z,0.76
2023-03-29T02:59:33.216Z,0.68
2023-03-29T03:00:33.201Z,0.60
2023-03-29T03:01:33.212Z,0.47
2023-03-29T03:02:33.223Z,0.36
2023-03-29T03:03:33.327Z,0.25
2023-03-29T03:04:33.160Z,0.16
2023-03-29T03:05:33.160Z,0.05
2023-03-29T03:06:33.145Z,0.01
2023-03-29T03:07:33.130Z,-0.02
2023-03-29T03:08:33.179Z,-0.07
2023-03-29T03:09:33.105Z,-0.13
2023-03-29T03:10:33.121Z,-0.11
2023-03-29T03:11:33.086Z,-0.15
2023-03-29T03:12:33.074Z,-0.07
2023-03-29T03:13:33.094Z,0.00
2023-03-29T03:14:33.059Z,0.00
2023-03-29T03:15:33.028Z,-0.07
2023-03-29T03:16:33.042Z,-0.14
2023-03-29T03:17:33.013Z,-0.23
2023-03-29T03:18:33.033Z,-0.32
2023-03-29T03:19:33.004Z,-0.31
2023-03-29T03:20:32.988Z,-0.34
2023-03-29T03:21:32.976Z,-0.35
2023-03-29T03:22:32.953Z,-0.35
2023-03-29T03:23:32.972Z,-0.35
2023-03-29T03:24:32.936Z,-0.39
2023-03-29T03:25:32.916Z,-0.39
2023-03-29T03:26:32.902Z,-0.29
2023-03-29T03:27:32.892Z,-0.20
2023-03-29T03:28:32.923Z,-0.17
2023-03-29T03:29:32.879Z,-0.15
2023-03-29T03:30:32.877Z,-0.08
2023-03-29T03:31:32.914Z,0.05
2023-03-29T03:32:32.856Z,0.18
2023-03-29T03:33:32.858Z,0.12
2023-03-29T03:34:32.889Z,0.10
2023-03-29T03:35:32.837Z,0.05
2023-03-29T03:36:32.819Z,0.04
2023-03-29T03:37:32.777Z,0.04
2023-03-29T03:38:32.809Z,0.01
2023-03-29T03:39:32.772Z,-0.03
2023-03-29T03:40:32.779Z,-0.07
2023-03-29T03:41:32.740Z,-0.06
2023-03-29T03:42:32.761Z,0.08
2023-03-29T03:43:32.739Z,0.11
2023-03-29T03:44:32.709Z,0.11
2023-03-29T03:45:32.704Z,0.05
2023-03-29T03:46:32.698Z,0.10
2023-03-29T03:47:32.704Z,0.28
2023-03-29T03:48:32.705Z,0.28
2023-03-29T03:49:32.642Z,0.25
2023-03-29T03:50:32.643Z,0.19
2023-03-29T03:51:32.640Z,0.11
2023-03-29T03:52:32.658Z,0.12
2023-03-29T03:53:32.643Z,0.16
2023-03-29T03:54:32.610Z,0.08
2023-03-29T03:55:32.577Z,0.03
2023-03-29T03:56:32.599Z,0.00
2023-03-29T03:57:32.566Z,-0.06
2023-03-29T03:58:32.591Z,-0.03
2023-03-29T03:59:32.552Z,0.07
2023-03-29T04:00:32.526Z,0.10
2023-03-29T04:01:32.521Z,0.16
2023-03-29T04:02:32.574Z,0.23
2023-03-29T04:03:32.592Z,0.25
2023-03-29T04:04:33.513Z,0.29
2023-03-29T04:05:32.463Z,0.60
2023-03-29T04:06:32.481Z,0.78
2023-03-29T04:07:32.443Z,0.91
2023-03-29T04:08:32.470Z,0.91
2023-03-29T04:09:32.437Z,0.95
2023-03-29T04:10:32.431Z,0.96
2023-03-29T04:11:32.410Z,1.12
2023-03-29T04:12:32.389Z,1.16
2023-03-29T04:13:32.418Z,1.19
2023-03-29T04:14:32.421Z,1.41
2023-03-29T04:15:32.362Z,1.50
2023-03-29T04:16:32.356Z,1.48
2023-03-29T04:17:32.358Z,1.45
2023-03-29T04:18:32.481Z,1.59
2023-03-29T04:19:32.327Z,1.60
2023-03-29T04:20:32.297Z,1.60
2023-03-29T04:21:32.287Z,1.58
2023-03-29T04:22:32.330Z,1.52
2023-03-29T04:23:32.288Z,1.50
2023-03-29T04:24:32.277Z,1.56
2023-03-29T04:25:32.243Z,1.66
2023-03-29T04:26:32.243Z,1.80
2023-03-29T04:27:32.233Z,1.84
2023-03-29T04:28:32.268Z,1.89
2023-03-29T04:29:32.207Z,1.87
2023-03-29T04:30:32.210Z,1.89
2023-03-29T04:31:32.308Z,1.89
2023-03-29T04:32:32.285Z,1.87
2023-03-29T04:33:32.209Z,1.81
2023-03-29T04:34:32.174Z,1.77
2023-03-29T04:35:32.152Z,1.76
2023-03-29T04:36:32.138Z,1.78
2023-03-29T04:37:32.120Z,1.76
2023-03-29T04:38:32.152Z,1.68
2023-03-29T04:39:32.178Z,1.62
2023-03-29T04:40:32.102Z,1.73
2023-03-29T04:41:32.070Z,1.68
2023-03-29T04:42:32.070Z,1.40
2023-03-29T04:43:32.101Z,1.26
2023-03-29T04:44:32.029Z,1.28
2023-03-29T04:45:32.053Z,1.28
2023-03-29T04:46:32.078Z,1.32
2023-03-29T04:47:32.050Z,1.32
2023-03-29T04:48:32.059Z,1.28
2023-03-29T04:49:32.004Z,1.23
2023-03-29T04:50:31.977Z,1.16
2023-03-29T04:51:31.958Z,1.10
2023-03-29T04:52:31.941Z,1.01
2023-03-29T04:53:31.983Z,0.96
2023-03-29T04:54:31.944Z,0.88
2023-03-29T04:55:31.920Z,0.92
2023-03-29T04:56:31.908Z,0.94
2023-03-29T04:57:31.908Z,0.96
2023-03-29T04:58:32.653Z,0.95
2023-03-29T04:59:31.888Z,1.02
2023-03-29T05:00:31.894Z,1.02
2023-03-29T05:01:31.904Z,1.01
2023-03-29T05:02:31.884Z,1.01
2023-03-29T05:03:31.875Z,1.12
2023-03-29T05:04:31.912Z,1.24
2023-03-29T05:05:31.816Z,1.34
2023-03-29T05:06:31.812Z,1.38
2023-03-29T05:07:31.780Z,1.44
2023-03-29T05:08:31.819Z,1.42
2023-03-29T05:09:34.325Z,1.40
2023-03-29T05:10:31.767Z,1.41
2023-03-29T05:11:31.767Z,1.49
2023-03-29T05:12:31.714Z,1.53
2023-03-29T05:13:31.761Z,1.59
2023-03-29T05:14:31.766Z,1.62
2023-03-29T05:15:31.719Z,1.66
2023-03-29T05:16:31.798Z,1.68
2023-03-29T05:17:31.741Z,1.68
2023-03-29T05:18:31.721Z,1.63
2023-03-29T05:19:31.956Z,1.59
2023-03-29T05:20:31.643Z,1.53
2023-03-29T05:21:31.608Z,1.56
2023-03-29T05:22:31.600Z,1.59
2023-03-29T05:23:31.624Z,1.59
2023-03-29T05:24:31.598Z,1.62
2023-03-29T05:25:31.571Z,1.62
2023-03-29T05:26:31.576Z,1.63
2023-03-29T05:27:31.562Z,1.70
2023-03-29T05:28:31.611Z,1.73
2023-03-29T05:29:31.541Z,1.71
2023-03-29T05:30:31.531Z,1.71
2023-03-29T05:31:31.518Z,1.76
2023-03-29T05:32:31.558Z,1.81
2023-03-29T05:33:31.484Z,1.91
2023-03-29T05:34:31.514Z,1.95
2023-03-29T05:35:31.470Z,2.04
2023-03-29T05:36:31.476Z,2.10
2023-03-29T05:37:31.448Z,2.13
2023-03-29T05:38:31.470Z,2.20
2023-03-29T05:39:31.468Z,2.26
2023-03-29T05:40:31.404Z,2.25
2023-03-29T05:41:31.394Z,2.28
2023-03-29T05:42:31.385Z,2.29
2023-03-29T05:43:31.346Z,2.31
2023-03-29T05:44:31.387Z,2.31
2023-03-29T05:45:31.351Z,2.33
2023-03-29T05:46:31.333Z,2.35
2023-03-29T05:47:31.358Z,2.38
2023-03-29T05:48:31.306Z,2.42
2023-03-29T05:49:31.340Z,2.43
2023-03-29T05:50:31.286Z,2.43
2023-03-29T05:51:31.258Z,2.46
2023-03-29T05:52:31.242Z,2.51
2023-03-29T05:53:31.230Z,2.54
2023-03-29T05:54:31.304Z,2.53
2023-03-29T05:55:31.220Z,2.53
2023-03-29T05:56:31.240Z,2.57
2023-03-29T05:57:31.199Z,2.62
2023-03-29T05:58:31.207Z,2.65
2023-03-29T05:59:31.242Z,2.67
2023-03-29T06:00:31.178Z,2.72
2023-03-29T06:01:31.177Z,2.80
2023-03-29T06:02:31.314Z,2.85
2023-03-29T06:03:31.267Z,2.86
2023-03-29T06:04:31.218Z,2.87
2023-03-29T06:05:31.134Z,2.93
2023-03-29T06:06:31.093Z,3.01
2023-03-29T06:07:31.092Z,3.04
2023-03-29T06:08:31.122Z,3.16
2023-03-29T06:09:31.111Z,3.25
2023-03-29T06:10:31.054Z,3.31
2023-03-29T06:11:31.032Z,3.37
2023-03-29T06:12:31.040Z,3.48
2023-03-29T06:13:31.020Z,3.56
2023-03-29T06:14:31.049Z,3.66
2023-03-29T06:15:31.004Z,3.78
2023-03-29T06:16:31.014Z,3.91
2023-03-29T06:17:31.010Z,3.88
2023-03-29T06:18:30.966Z,3.95
2023-03-29T06:19:31.000Z,4.10
2023-03-29T06:20:30.952Z,4.31
2023-03-29T06:21:30.919Z,4.45
2023-03-29T06:22:30.910Z,4.56
2023-03-29T06:23:30.921Z,4.53
2023-03-29T06:24:30.934Z,4.50
2023-03-29T06:25:30.876Z,4.41
2023-03-29T06:26:30.899Z,4.38
2023-03-29T06:27:30.869Z,4.40
2023-03-29T06:28:30.861Z,4.50
2023-03-29T06:29:30.890Z,4.56
2023-03-29T06:30:30.868Z,4.49
2023-03-29T06:31:30.849Z,4.55
2023-03-29T06:32:30.848Z,4.68
2023-03-29T06:33:30.809Z,4.74
2023-03-29T06:34:30.831Z,4.66
2023-03-29T06:35:30.818Z,4.62
2023-03-29T06:36:30.771Z,4.60
2023-03-29T06:37:30.749Z,4.68
2023-03-29T06:38:30.758Z,4.74
2023-03-29T06:39:30.762Z,4.80
2023-03-29T06:40:30.756Z,4.90
2023-03-29T06:41:30.690Z,4.93
2023-03-29T06:42:30.720Z,4.87
2023-03-29T06:43:30.685Z,4.89
2023-03-29T06:44:30.734Z,4.90
2023-03-29T06:45:30.664Z,4.82
2023-03-29T06:46:30.661Z,4.87
2023-03-29T06:47:30.711Z,5.02
2023-03-29T06:48:30.627Z,5.17
2023-03-29T06:49:30.630Z,5.23
2023-03-29T06:50:30.608Z,-40.00
2023-03-29T06:51:30.593Z,5.64
2023-03-29T06:52:30.563Z,5.75
2023-03-29T06:53:30.558Z,5.76
2023-03-29T06:54:30.589Z,5.71
2023-03-29T06:55:30.540Z,5.59
2023-03-29T06:56:30.532Z,5.57
2023-03-29T06:57:30.563Z,5.73
2023-03-29T06:58:30.506Z,5.91
2023-03-29T06:59:30.517Z,5.86
2023-03-29T07:00:30.494Z,5.94
2023-03-29T07:01:30.525Z,5.98
2023-03-29T07:02:30.505Z,6.11
2023-03-29T07:03:30.450Z,6.19
2023-03-29T07:04:30.491Z,6.14
2023-03-29T07:05:30.414Z,5.99
2023-03-29T07:06:30.435Z,6.04
2023-03-29T07:07:30.539Z,6.04
2023-03-29T07:08:30.436Z,6.02
2023-03-29T07:09:30.426Z,6.09
2023-03-29T07:10:30.368Z,6.39
2023-03-29T07:11:30.374Z,-40.00
2023-03-29T07:12:30.350Z,5.89
2023-03-29T07:13:30.354Z,6.04
2023-03-29T07:14:30.385Z,6.12
2023-03-29T07:15:30.332Z,6.20
2023-03-29T07:16:30.350Z,6.31
2023-03-29T07:17:30.295Z,6.45
2023-03-29T07:18:30.292Z,6.60
2023-03-29T07:19:30.421Z,6.72
2023-03-29T07:20:30.260Z,6.88
2023-03-29T07:21:30.234Z,6.93
2023-03-29T07:22:30.253Z,7.18
2023-03-29T07:23:30.220Z,7.50
2023-03-29T07:24:30.252Z,7.70
2023-03-29T07:25:30.198Z,7.82
2023-03-29T07:26:30.422Z,8.01
2023-03-29T07:27:30.185Z,8.06
2023-03-29T07:28:30.161Z,8.15
2023-03-29T07:29:30.464Z,7.69
2023-03-29T07:30:32.032Z,7.40
2023-03-29T07:31:30.121Z,7.58
2023-03-29T07:32:30.142Z,7.93
2023-03-29T07:33:30.180Z,8.13
2023-03-29T07:34:30.136Z,8.00
2023-03-29T07:35:30.097Z,8.13
2023-03-29T07:36:30.067Z,8.06
2023-03-29T07:37:30.061Z,7.91
2023-03-29T07:38:30.042Z,8.37
2023-03-29T07:39:30.078Z,8.51
2023-03-29T07:40:30.014Z,8.56
2023-03-29T07:41:30.048Z,8.79
2023-03-29T07:42:30.025Z,9.06
2023-03-29T07:43:29.987Z,9.39
2023-03-29T07:44:30.037Z,8.78
2023-03-29T07:45:30.044Z,8.67
2023-03-29T07:46:29.979Z,8.27
2023-03-29T07:47:29.990Z,8.13
2023-03-29T07:48:29.923Z,8.16
2023-03-29T07:49:29.954Z,7.98
2023-03-29T07:50:29.887Z,7.73
2023-03-29T07:51:29.890Z,7.75
2023-03-29T07:52:29.890Z,7.88
2023-03-29T07:53:29.906Z,8.06
2023-03-29T07:54:29.893Z,8.03
2023-03-29T07:55:29.845Z,7.93
2023-03-29T07:56:29.865Z,7.77
2023-03-29T07:57:29.860Z,7.88
2023-03-29T07:58:29.820Z,8.19
2023-03-29T07:59:29.864Z,8.34
2023-03-29T08:00:29.816Z,8.45
2023-03-29T08:01:29.871Z,8.61
2023-03-29T08:02:30.093Z,8.19
2023-03-29T08:03:29.814Z,8.10
2023-03-29T08:04:29.880Z,7.93
2023-03-29T08:05:40.837Z,8.12
2023-03-29T08:06:30.773Z,7.98
2023-03-29T08:07:29.706Z,8.26
2023-03-29T08:08:29.721Z,8.46
2023-03-29T08:09:29.733Z,8.52
2023-03-29T08:10:29.682Z,8.78
2023-03-29T08:11:29.691Z,9.03
2023-03-29T08:12:29.663Z,9.22
2023-03-29T08:13:29.645Z,9.61
2023-03-29T08:14:29.683Z,9.54
2023-03-29T08:15:29.656Z,9.47
2023-03-29T08:16:29.665Z,9.50
2023-03-29T08:17:29.629Z,9.94
2023-03-29T08:18:30.060Z,9.62
2023-03-29T08:19:29.612Z,9.34
2023-03-29T08:20:29.553Z,9.46
2023-03-29T08:21:29.565Z,9.10
2023-03-29T08:22:29.566Z,9.25
2023-03-29T08:23:29.525Z,9.34
2023-03-29T08:24:29.568Z,9.62
2023-03-29T08:25:29.517Z,9.72
2023-03-29T08:26:29.496Z,9.59
2023-03-29T08:27:29.497Z,9.44
2023-03-29T08:28:29.461Z,9.40
2023-03-29T08:29:29.497Z,9.83
2023-03-29T08:30:29.492Z,10.30
2023-03-29T08:31:29.532Z,10.81
2023-03-29T08:32:29.458Z,10.84
2023-03-29T08:33:29.420Z,10.94
2023-03-29T08:34:29.400Z,10.35
2023-03-29T08:35:29.443Z,10.59
2023-03-29T08:36:29.406Z,10.41
2023-03-29T08:37:29.378Z,10.56
2023-03-29T08:38:29.351Z,10.38
2023-03-29T08:39:29.359Z,10.30
2023-03-29T08:40:29.394Z,10.57
2023-03-29T08:41:29.347Z,10.49
2023-03-29T08:42:29.307Z,9.99
2023-03-29T08:43:29.317Z,9.77
2023-03-29T08:44:29.281Z,10.12
2023-03-29T08:45:29.357Z,10.28
2023-03-29T08:46:34.799Z,9.98
2023-03-29T08:47:30.329Z,9.99
2023-03-29T08:48:29.236Z,10.31
2023-03-29T08:49:29.229Z,10.38
2023-03-29T08:50:29.292Z,10.71
2023-03-29T08:51:29.197Z,11.02
2023-03-29T08:52:29.196Z,11.11
2023-03-29T08:53:29.191Z,11.14
2023-03-29T08:54:29.185Z,11.70
2023-03-29T08:55:29.207Z,11.95
2023-03-29T08:56:31.452Z,11.75
2023-03-29T08:57:29.136Z,11.83
2023-03-29T08:58:29.151Z,11.22
2023-03-29T08:59:29.126Z,10.37
2023-03-29T09:00:29.127Z,10.26
2023-03-29T09:01:29.094Z,10.13
2023-03-29T09:02:29.180Z,10.38
2023-03-29T09:03:29.157Z,10.53
2023-03-29T09:04:29.057Z,10.54
2023-03-29T09:05:29.080Z,10.89
2023-03-29T09:06:29.021Z,11.05
2023-03-29T09:07:29.040Z,11.08
2023-03-29T09:08:29.020Z,10.86
2023-03-29T09:09:29.007Z,10.81
2023-03-29T09:10:29.028Z,10.92
2023-03-29T09:11:28.992Z,10.84
2023-03-29T09:12:28.963Z,10.69
2023-03-29T09:13:28.983Z,10.56
2023-03-29T09:14:28.934Z,10.61
2023-03-29T09:15:28.977Z,10.69
2023-03-29T09:16:28.954Z,10.93
2023-03-29T09:17:28.921Z,10.96
2023-03-29T09:18:28.914Z,10.86
2023-03-29T09:19:28.864Z,10.92
2023-03-29T09:20:28.922Z,11.36
2023-03-29T09:21:28.845Z,11.41
2023-03-29T09:22:28.868Z,11.30
2023-03-29T09:23:28.842Z,11.60
2023-03-29T09:24:28.855Z,12.07
2023-03-29T09:25:28.852Z,12.17
2023-03-29T09:26:28.799Z,12.10
2023-03-29T09:27:28.813Z,12.61
2023-03-29T09:28:28.752Z,12.13
2023-03-29T09:29:28.786Z,12.17
2023-03-29T09:30:28.797Z,12.54
2023-03-29T09:31:28.807Z,12.49
2023-03-29T09:32:28.739Z,12.61
2023-03-29T09:33:28.732Z,12.36
2023-03-29T09:34:28.715Z,12.13
2023-03-29T09:35:28.747Z,11.50
2023-03-29T09:36:28.678Z,11.19
2023-03-29T09:37:28.691Z,11.23
2023-03-29T09:38:28.713Z,11.29
2023-03-29T09:39:28.737Z,11.22
2023-03-29T09:40:28.698Z,10.84
2023-03-29T09:41:28.650Z,10.86
2023-03-29T09:42:28.626Z,10.94
2023-03-29T09:43:28.609Z,11.00
2023-03-29T09:44:31.344Z,10.90
2023-03-29T09:45:28.608Z,10.76
2023-03-29T09:46:28.563Z,10.81
2023-03-29T09:47:28.574Z,10.69
2023-03-29T09:48:28.552Z,10.54
2023-03-29T09:49:28.522Z,10.69
2023-03-29T09:50:31.710Z,10.90
2023-03-29T09:51:28.502Z,10.93
2023-03-29T09:52:28.518Z,10.81
2023-03-29T09:53:28.550Z,10.84
2023-03-29T09:54:28.472Z,10.59
2023-03-29T09:55:28.519Z,10.38
2023-03-29T09:56:28.446Z,10.48
2023-03-29T09:57:28.577Z,10.30
2023-03-29T09:58:28.437Z,10.40
2023-03-29T09:59:28.440Z,10.79
2023-03-29T10:00:28.489Z,10.75
2023-03-29T10:01:28.453Z,10.86
2023-03-29T10:02:28.422Z,10.68
2023-03-29T10:03:28.384Z,10.44
2023-03-29T10:04:28.405Z,10.48
2023-03-29T10:05:28.398Z,10.49
2023-03-29T10:06:28.343Z,10.46
2023-03-29T10:07:28.352Z,10.31
2023-03-29T10:08:28.334Z,10.25
2023-03-29T10:09:28.304Z,10.30
2023-03-29T10:10:28.350Z,10.35
2023-03-29T10:11:28.326Z,10.26
2023-03-29T10:12:28.277Z,9.98
2023-03-29T10:13:28.253Z,10.10
2023-03-29T10:14:28.241Z,10.40
2023-03-29T10:15:29.983Z,10.69
2023-03-29T10:16:28.225Z,10.61
2023-03-29T10:17:28.293Z,10.51
2023-03-29T10:18:28.215Z,10.25
2023-03-29T10:19:28.222Z,10.63
2023-03-29T10:20:28.200Z,11.27
2023-03-29T10:21:28.240Z,12.13
2023-03-29T10:22:28.165Z,12.42
2023-03-29T10:23:28.153Z,12.28
2023-03-29T10:24:28.161Z,12.02
2023-03-29T10:25:28.121Z,11.54
2023-03-29T10:26:28.153Z,11.52
2023-03-29T10:27:28.131Z,11.57
2023-03-29T10:28:28.089Z,11.47
2023-03-29T10:29:28.074Z,11.60
2023-03-29T10:30:28.076Z,11.77
2023-03-29T10:31:28.166Z,12.55
2023-03-29T10:32:28.045Z,13.05
2023-03-29T10:33:28.047Z,12.37
2023-03-29T10:34:28.029Z,12.24
2023-03-29T10:35:28.024Z,11.62
2023-03-29T10:36:28.023Z,11.11
2023-03-29T10:37:27.983Z,11.18
2023-03-29T10:38:27.972Z,11.37
2023-03-29T10:39:28.019Z,11.99
2023-03-29T10:40:27.958Z,12.61
2023-03-29T10:41:27.979Z,12.29
2023-03-29T10:42:27.920Z,12.22
2023-03-29T10:43:27.961Z,12.45
2023-03-29T10:44:28.632Z,12.25
2023-03-29T10:45:27.925Z,12.62
2023-03-29T10:46:27.971Z,12.20
2023-03-29T10:47:27.928Z,11.54
2023-03-29T10:48:27.848Z,11.41
2023-03-29T10:49:27.857Z,11.33
2023-03-29T10:50:27.845Z,11.52
2023-03-29T10:51:27.903Z,11.72
2023-03-29T10:52:27.804Z,12.53
2023-03-29T10:53:27.815Z,12.91
2023-03-29T10:54:27.894Z,12.76
2023-03-29T10:55:27.783Z,13.09
2023-03-29T10:56:27.810Z,12.90
2023-03-29T10:57:27.815Z,13.42
2023-03-29T10:58:27.761Z,13.83
2023-03-29T10:59:27.738Z,13.78
2023-03-29T11:00:27.752Z,13.50
2023-03-29T11:01:27.779Z,13.31
2023-03-29T11:02:27.753Z,13.19
2023-03-29T11:03:27.776Z,13.78
2023-03-29T11:04:27.690Z,13.90
2023-03-29T11:05:27.679Z,13.13
2023-03-29T11:06:27.718Z,13.44
2023-03-29T11:07:27.628Z,13.37
2023-03-29T11:08:30.428Z,12.70
2023-03-29T11:09:27.620Z,12.12
2023-03-29T11:10:27.642Z,11.36
2023-03-29T11:11:27.627Z,11.44
2023-03-29T11:12:27.599Z,11.60
2023-03-29T11:13:27.578Z,12.35
2023-03-29T11:14:27.537Z,13.60
2023-03-29T11:15:27.537Z,14.70
2023-03-29T11:16:27.638Z,13.99
2023-03-29T11:17:27.580Z,14.53
2023-03-29T11:18:27.518Z,14.12
2023-03-29T11:19:27.518Z,13.67
2023-03-29T11:20:27.493Z,13.83
2023-03-29T11:21:27.522Z,13.79
2023-03-29T11:22:27.489Z,14.29
2023-03-29T11:23:27.600Z,14.08
2023-03-29T11:24:27.478Z,14.07
2023-03-29T11:25:29.621Z,14.18
2023-03-29T11:26:27.498Z,13.71
2023-03-29T11:27:27.417Z,13.62
2023-03-29T11:28:27.405Z,13.16
2023-03-29T11:29:27.390Z,13.15
2023-03-29T11:30:27.389Z,13.04
2023-03-29T11:31:27.461Z,13.41
2023-03-29T11:32:27.390Z,13.59
2023-03-29T11:33:27.357Z,13.44
2023-03-29T11:34:27.332Z,13.63
2023-03-29T11:35:27.310Z,13.53
2023-03-29T11:36:27.365Z,12.83
2023-03-29T11:37:27.333Z,12.07
2023-03-29T11:38:27.284Z,12.35
2023-03-29T11:39:27.262Z,12.36
2023-03-29T11:40:27.293Z,12.28
2023-03-29T11:41:27.334Z,12.54
2023-03-29T11:42:27.293Z,12.36
2023-03-29T11:43:27.255Z,12.17
2023-03-29T11:44:27.234Z,11.97
2023-03-29T11:45:27.201Z,12.00
2023-03-29T11:46:27.298Z,11.54
2023-03-29T11:47:27.233Z,11.30
2023-03-29T11:48:27.177Z,12.18
2023-03-29T11:49:27.163Z,12.70
2023-03-29T11:50:27.155Z,13.65
2023-03-29T11:51:27.160Z,14.17
2023-03-29T11:52:27.131Z,14.05
2023-03-29T11:53:27.099Z,14.43
2023-03-29T11:54:27.099Z,14.07
2023-03-29T11:55:27.075Z,14.84
2023-03-29T11:56:27.104Z,14.78
2023-03-29T11:57:27.233Z,15.19
2023-03-29T11:58:27.081Z,14.85
2023-03-29T11:59:27.050Z,14.50
2023-03-29T12:00:27.043Z,14.77
2023-03-29T12:01:27.062Z,14.18
2023-03-29T12:02:27.040Z,13.97
2023-03-29T12:03:27.035Z,13.59
2023-03-29T12:04:27.037Z,14.30
2023-03-29T12:05:26.972Z,14.41
2023-03-29T12:06:26.987Z,13.87
2023-03-29T12:07:26.966Z,13.68
2023-03-29T12:08:27.003Z,14.14
2023-03-29T12:09:26.916Z,14.33
2023-03-29T12:10:27.047Z,14.59
2023-03-29T12:11:26.930Z,14.79
2023-03-29T12:12:26.896Z,13.68
2023-03-29T12:13:26.895Z,13.11
2023-03-29T12:14:28.102Z,12.42
2023-03-29T12:15:26.841Z,12.31
2023-03-29T12:16:26.897Z,12.13
2023-03-29T12:17:26.856Z,11.70
2023-03-29T12:18:26.843Z,11.57
2023-03-29T12:19:26.844Z,11.63
2023-03-29T12:20:26.817Z,11.87
2023-03-29T12:21:26.840Z,12.00
2023-03-29T12:22:26.774Z,12.22
2023-03-29T12:23:26.775Z,12.36
2023-03-29T12:24:26.893Z,12.25
2023-03-29T12:25:26.768Z,12.42
2023-03-29T12:26:26.778Z,12.28
2023-03-29T12:27:26.736Z,11.73
2023-03-29T12:28:26.754Z,11.73
2023-03-29T12:29:26.677Z,11.36
2023-03-29T12:30:26.691Z,11.52
2023-03-29T12:31:26.761Z,11.45
2023-03-29T12:32:26.692Z,11.25
2023-03-29T12:33:26.649Z,11.29
2023-03-29T12:34:26.674Z,11.30
2023-03-29T12:35:26.645Z,11.25
2023-03-29T12:36:26.654Z,10.79
2023-03-29T12:37:26.616Z,10.84
2023-03-29T12:38:28.718Z,10.78
2023-03-29T12:39:26.587Z,11.11
2023-03-29T12:40:26.577Z,11.27
2023-03-29T12:41:26.614Z,11.15
2023-03-29T12:42:26.564Z,11.02
2023-03-29T12:43:26.524Z,11.26
2023-03-29T12:44:26.569Z,11.00
2023-03-29T12:45:26.496Z,11.30
2023-03-29T12:46:26.764Z,11.73
2023-03-29T12:47:26.526Z,12.42
2023-03-29T12:48:26.513Z,13.18
2023-03-29T12:49:26.471Z,13.97
2023-03-29T12:50:26.458Z,13.96
2023-03-29T12:51:26.488Z,14.40
2023-03-29T12:52:26.436Z,14.92
2023-03-29T12:53:26.465Z,15.44
2023-03-29T12:54:28.132Z,15.15
2023-03-29T12:55:26.428Z,15.33
2023-03-29T12:56:26.411Z,15.62
2023-03-29T12:57:26.410Z,15.59
2023-03-29T12:58:26.361Z,14.41
2023-03-29T12:59:26.351Z,14.41
2023-03-29T13:00:26.386Z,14.04
2023-03-29T13:01:26.605Z,14.68
2023-03-29T13:02:26.461Z,14.79
2023-03-29T13:03:26.395Z,14.58